Time;durP1;ratioP1;P1;durP2;ratioP2;P2;SDS_P1;SDS_P2;PMS_P1;PMS_P2;Temp;Humidity;BMP_temperature;BMP_pressure;BME280_temperature;BME280_humidity;BME280_pressure;Samples;Min_cycle;Max_cycle;Signal;HPM_P1;HPM_P2
2022/10/08 00:01:00;;;;;;;3.90;3.50;;;19.80;59.90;;;;;;5035637;28;20203;-63
2022/10/08 00:03:28;;;;;;;5.53;3.30;;;19.80;59.80;;;;;;5036002;28;20181;-63
2022/10/08 00:05:56;;;;;;;3.90;3.60;;;19.80;59.80;;;;;;5017519;28;20188;-63
2022/10/08 00:08:24;;;;;;;4.30;3.42;;;19.80;59.80;;;;;;5035569;28;20208;-63
2022/10/08 00:10:55;;;;;;;3.90;3.42;;;19.80;59.80;;;;;;5017825;28;20192;-64
2022/10/08 00:13:22;;;;;;;5.70;3.83;;;19.80;59.80;;;;;;5035864;28;20188;-63
2022/10/08 00:15:49;;;;;;;3.67;3.38;;;19.80;59.80;;;;;;5035498;28;20210;-63
2022/10/08 00:18:17;;;;;;;4.47;4.03;;;19.80;59.70;;;;;;5017679;28;20266;-63
2022/10/08 00:20:44;;;;;;;4.57;3.63;;;19.80;59.70;;;;;;5035546;28;20566;-64
2022/10/08 00:23:11;;;;;;;3.90;3.50;;;19.80;59.60;;;;;;5035671;28;20188;-63
2022/10/08 00:25:41;;;;;;;4.45;4.05;;;19.80;59.60;;;;;;5035368;28;20188;-63
2022/10/08 00:28:08;;;;;;;3.80;3.50;;;19.80;59.60;;;;;;5035189;28;20208;-63
2022/10/08 00:30:36;;;;;;;3.63;3.25;;;19.70;59.60;;;;;;5017500;28;20219;-63
2022/10/08 00:33:03;;;;;;;3.90;3.60;;;19.70;59.50;;;;;;5035166;28;20241;-63
2022/10/08 00:35:31;;;;;;;4.28;3.47;;;19.70;59.50;;;;;;5035219;28;20211;-63
2022/10/08 00:37:58;;;;;;;4.40;4.00;;;19.70;59.60;;;;;;5017242;28;20256;-63
2022/10/08 00:40:25;;;;;;;3.83;3.50;;;19.70;59.40;;;;;;5035561;28;20188;-63
2022/10/08 00:42:53;;;;;;;6.10;3.55;;;19.70;59.50;;;;;;5035027;28;20192;-63
2022/10/08 00:45:20;;;;;;;3.88;3.55;;;19.70;59.40;;;;;;5034982;28;20185;-63
2022/10/08 00:47:48;;;;;;;3.60;3.30;;;19.70;59.50;;;;;;5035111;28;20212;-63
2022/10/08 00:50:18;;;;;;;4.15;3.85;;;19.70;59.50;;;;;;5017379;28;20206;-63
2022/10/08 00:52:47;;;;;;;3.63;3.33;;;19.70;59.50;;;;;;5019385;28;20184;-63
2022/10/08 00:55:15;;;;;;;4.00;3.47;;;19.70;59.60;;;;;;5018896;28;20220;-64
2022/10/08 00:57:42;;;;;;;4.10;3.70;;;19.70;59.50;;;;;;5035500;28;20632;-64
2022/10/08 01:00:13;;;;;;;3.50;3.20;;;19.60;59.40;;;;;;5034791;28;20194;-63
2022/10/08 01:02:40;;;;;;;4.53;3.75;;;19.70;59.60;;;;;;5035142;28;20200;-63
2022/10/08 01:05:08;;;;;;;3.70;3.40;;;19.60;59.50;;;;;;5035173;28;20199;-63
2022/10/08 01:07:39;;;;;;;4.05;3.63;;;19.60;59.50;;;;;;5035989;28;20196;-63
2022/10/08 01:10:07;;;;;;;3.67;3.38;;;19.60;59.40;;;;;;5035237;28;20180;-63
2022/10/08 01:12:40;;;;;;;4.28;3.72;;;19.60;59.40;;;;;;5017131;28;20192;-63
2022/10/08 01:15:10;;;;;;;3.72;3.42;;;19.60;59.40;;;;;;5017239;28;20209;-63
2022/10/08 01:17:42;;;;;;;3.83;3.53;;;19.60;59.40;;;;;;5034248;28;20212;-63
2022/10/08 01:20:36;;;;;;;4.30;3.90;;;19.60;59.40;;;;;;5017433;28;20228;-63
2022/10/08 01:23:14;;;;;;;4.22;3.67;;;19.60;59.50;;;;;;5038304;28;20637;-63
2022/10/08 01:25:47;;;;;;;3.70;3.40;;;19.50;59.40;;;;;;5021907;28;20652;-63
2022/10/08 01:28:18;;;;;;;4.35;3.70;;;19.60;59.50;;;;;;5034278;28;20228;-63
2022/10/08 01:30:47;;;;;;;4.03;3.63;;;19.50;59.40;;;;;;5016628;28;20651;-63
2022/10/08 01:33:17;;;;;;;4.32;3.72;;;19.50;59.40;;;;;;5034046;28;20195;-63
2022/10/08 01:35:45;;;;;;;4.20;3.80;;;19.50;59.50;;;;;;5016305;28;20216;-63
2022/10/08 01:38:14;;;;;;;4.10;3.63;;;19.50;59.60;;;;;;5016254;28;20388;-63
2022/10/08 01:40:42;;;;;;;4.20;3.80;;;19.50;59.50;;;;;;5034129;28;20670;-63
2022/10/08 01:43:10;;;;;;;3.78;3.47;;;19.50;59.50;;;;;;5033967;28;20238;-63
2022/10/08 01:45:40;;;;;;;5.28;3.85;;;19.50;59.60;;;;;;5033784;28;20184;-63
2022/10/08 01:48:09;;;;;;;4.47;4.00;;;19.50;59.40;;;;;;5033945;28;20239;-63
2022/10/08 01:50:38;;;;;;;3.88;3.50;;;19.50;59.40;;;;;;5033795;28;20275;-63
2022/10/08 01:53:08;;;;;;;3.78;3.47;;;19.50;59.40;;;;;;5016022;28;20258;-63
2022/10/08 01:55:37;;;;;;;3.90;3.60;;;19.50;59.40;;;;;;5034066;28;20204;-63
2022/10/08 01:58:07;;;;;;;4.28;3.88;;;19.40;59.40;;;;;;5015877;28;20212;-63
2022/10/08 02:00:34;;;;;;;3.83;3.53;;;19.50;59.40;;;;;;5015810;28;20204;-63
2022/10/08 02:03:02;;;;;;;4.38;3.80;;;19.40;59.40;;;;;;5033597;28;20571;-64
2022/10/08 02:05:31;;;;;;;3.80;3.50;;;19.40;59.40;;;;;;5033481;28;20184;-63
2022/10/08 02:07:58;;;;;;;3.90;3.60;;;19.40;59.40;;;;;;5033414;28;20211;-63
2022/10/08 02:10:26;;;;;;;4.05;3.75;;;19.40;59.40;;;;;;5015756;28;20197;-63
2022/10/08 02:12:53;;;;;;;3.90;3.60;;;19.40;59.40;;;;;;5015842;28;20195;-63
2022/10/08 02:15:21;;;;;;;3.63;3.22;;;19.40;60.00;;;;;;5015613;28;20297;-63
2022/10/08 02:17:54;;;;;;;3.95;3.65;;;19.40;59.40;;;;;;5015541;28;20375;-63
2022/10/08 02:20:26;;;;;;;4.72;3.63;;;19.40;59.40;;;;;;5033325;28;20188;-64
2022/10/08 02:22:57;;;;;;;4.00;3.70;;;19.40;59.40;;;;;;5033252;28;20184;-64
2022/10/08 02:25:28;;;;;;;4.40;4.00;;;19.40;59.50;;;;;;5033290;28;20172;-64
2022/10/08 02:27:58;;;;;;;4.18;3.80;;;19.40;59.50;;;;;;5033002;28;20230;-64
2022/10/08 02:30:24;;;;;;;4.40;4.00;;;19.40;59.50;;;;;;5033455;28;20195;-64
2022/10/08 02:32:54;;;;;;;4.20;3.80;;;19.40;59.40;;;;;;5015465;28;20563;-63
2022/10/08 02:35:25;;;;;;;4.13;3.83;;;19.40;59.60;;;;;;5032928;28;20204;-63
2022/10/08 02:37:56;;;;;;;4.03;3.10;;;19.40;59.50;;;;;;5015276;28;20227;-63
2022/10/08 02:40:23;;;;;;;4.18;3.78;;;19.40;59.60;;;;;;5033076;28;20646;-63
2022/10/08 02:42:52;;;;;;;4.47;3.88;;;19.40;59.40;;;;;;5033336;28;20184;-63
2022/10/08 02:45:21;;;;;;;5.07;3.80;;;19.40;59.60;;;;;;5015287;28;20196;-63
2022/10/08 02:47:50;;;;;;;4.53;3.92;;;19.40;59.50;;;;;;5015209;28;20223;-63
2022/10/08 02:50:19;;;;;;;6.15;3.78;;;19.40;59.60;;;;;;5032938;28;20246;-63
2022/10/08 02:52:47;;;;;;;4.47;3.83;;;19.40;59.60;;;;;;5015504;28;20191;-64
2022/10/08 02:55:18;;;;;;;4.22;3.83;;;19.40;59.50;;;;;;5032797;28;20751;-63
2022/10/08 02:57:46;;;;;;;4.15;3.75;;;19.40;59.50;;;;;;5033015;28;20713;-63
2022/10/08 03:00:13;;;;;;;4.40;4.00;;;19.40;59.40;;;;;;5032770;28;20188;-63
2022/10/08 03:02:43;;;;;;;4.57;3.70;;;19.40;59.40;;;;;;5015129;28;20708;-64
2022/10/08 03:05:13;;;;;;;5.05;3.80;;;19.40;59.30;;;;;;5032910;28;20275;-64
2022/10/08 03:07:40;;;;;;;4.25;3.80;;;19.40;59.10;;;;;;5015109;28;20247;-64
2022/10/08 03:10:10;;;;;;;4.30;3.80;;;19.40;59.10;;;;;;5014994;28;20299;-64
2022/10/08 03:12:37;;;;;;;4.88;3.72;;;19.40;59.10;;;;;;5032769;28;20185;-64
2022/10/08 03:15:04;;;;;;;4.22;3.80;;;19.40;59.20;;;;;;5015094;28;20700;-64
2022/10/08 03:17:33;;;;;;;3.90;3.50;;;19.40;59.20;;;;;;5032622;28;20211;-64
2022/10/08 03:20:01;;;;;;;3.47;3.15;;;19.40;59.20;;;;;;5032960;28;20196;-64
2022/10/08 03:22:30;;;;;;;5.70;3.80;;;19.40;59.10;;;;;;5032751;28;20601;-64
2022/10/08 03:24:57;;;;;;;3.97;3.63;;;19.40;59.20;;;;;;5032712;28;20207;-64
2022/10/08 03:27:25;;;;;;;3.83;3.35;;;19.40;59.40;;;;;;5032563;28;20204;-63
2022/10/08 03:29:55;;;;;;;3.83;3.53;;;19.50;59.40;;;;;;5032620;28;20192;-64
2022/10/08 03:32:23;;;;;;;4.70;3.60;;;19.50;59.40;;;;;;5015435;28;20200;-64
2022/10/08 03:34:50;;;;;;;3.63;3.33;;;19.50;59.30;;;;;;5014913;28;20211;-64
2022/10/08 03:37:17;;;;;;;3.63;3.33;;;19.60;59.30;;;;;;5032436;28;20282;-64
2022/10/08 03:39:45;;;;;;;3.60;3.30;;;19.60;59.10;;;;;;5033175;28;20563;-63
2022/10/08 03:42:12;;;;;;;3.80;3.50;;;19.60;58.90;;;;;;5018450;28;20227;-64
2022/10/08 03:44:41;;;;;;;3.40;3.10;;;19.70;58.70;;;;;;5018252;28;20204;-64
2022/10/08 03:47:08;;;;;;;3.28;3.08;;;19.80;59.30;;;;;;5018183;28;20338;-64
2022/10/08 03:49:35;;;;;;;3.53;3.22;;;19.80;58.70;;;;;;5018594;28;20196;-64
2022/10/08 03:52:02;;;;;;;3.70;3.40;;;19.90;58.70;;;;;;5036141;28;20192;-64
2022/10/08 03:54:29;;;;;;;3.90;3.25;;;19.90;58.50;;;;;;5018204;28;20204;-64
2022/10/08 03:56:56;;;;;;;3.58;3.30;;;20.00;58.30;;;;;;5018065;28;20220;-64
2022/10/08 03:59:23;;;;;;;3.60;3.30;;;19.90;58.20;;;;;;5018069;28;20207;-64
2022/10/08 04:01:51;;;;;;;3.58;3.30;;;19.90;58.10;;;;;;5017927;28;20231;-64
2022/10/08 04:04:18;;;;;;;3.78;3.33;;;19.90;58.10;;;;;;5035700;28;20195;-64
2022/10/08 04:06:45;;;;;;;3.75;3.45;;;20.00;58.80;;;;;;5018028;28;20203;-64
2022/10/08 04:09:12;;;;;;;3.90;3.60;;;20.00;58.10;;;;;;5035602;28;20200;-63
2022/10/08 04:11:39;;;;;;;3.85;3.50;;;20.00;58.20;;;;;;5035591;28;20230;-64
2022/10/08 04:14:07;;;;;;;3.70;3.40;;;19.90;58.20;;;;;;5017781;28;20230;-64
2022/10/08 04:16:34;;;;;;;3.60;3.33;;;19.90;58.30;;;;;;5035363;28;20631;-64
2022/10/08 04:19:02;;;;;;;3.78;3.47;;;19.90;58.30;;;;;;5035543;28;20203;-64
2022/10/08 04:21:30;;;;;;;3.78;3.47;;;19.80;58.30;;;;;;5017616;28;20196;-64
2022/10/08 04:23:57;;;;;;;3.80;3.50;;;19.80;58.40;;;;;;5035439;28;20185;-64
2022/10/08 04:26:24;;;;;;;4.18;3.78;;;19.80;58.40;;;;;;5035449;28;20271;-64
2022/10/08 04:28:51;;;;;;;3.45;3.15;;;19.80;58.50;;;;;;5035542;28;20335;-64
2022/10/08 04:31:20;;;;;;;3.80;3.50;;;19.80;58.40;;;;;;5035432;28;20192;-64
2022/10/08 04:33:47;;;;;;;3.47;3.20;;;19.80;58.50;;;;;;5017436;28;20196;-64
2022/10/08 04:36:16;;;;;;;3.90;3.60;;;19.80;58.50;;;;;;5017318;28;20227;-64
2022/10/08 04:38:43;;;;;;;4.05;3.70;;;19.80;58.50;;;;;;5035041;28;20216;-64
2022/10/08 04:41:11;;;;;;;4.10;3.70;;;19.80;58.50;;;;;;5017289;28;20674;-64
2022/10/08 04:43:38;;;;;;;4.35;3.22;;;19.80;58.60;;;;;;5017226;28;20200;-64
2022/10/08 04:46:07;;;;;;;4.07;3.72;;;19.80;58.60;;;;;;5017117;28;20250;-63
2022/10/08 04:48:34;;;;;;;3.63;3.40;;;19.80;58.60;;;;;;5034815;28;20214;-64
2022/10/08 04:51:02;;;;;;;3.42;3.13;;;19.70;58.50;;;;;;5017326;28;20741;-63
2022/10/08 04:53:30;;;;;;;3.97;3.63;;;19.70;58.60;;;;;;5034877;28;20765;-64
2022/10/08 04:55:57;;;;;;;3.72;3.42;;;19.70;59.20;;;;;;5034728;28;20195;-64
2022/10/08 04:58:25;;;;;;;3.75;3.55;;;19.70;58.60;;;;;;5016967;28;20315;-64
2022/10/08 05:03:18;;;;;;;4.10;3.70;;;19.70;58.60;;;;;;5033225;28;20207;-59
2022/10/08 05:05:46;;;;;;;3.72;3.42;;;19.70;58.60;;;;;;5034437;28;20216;-59
2022/10/08 05:08:13;;;;;;;3.50;3.25;;;19.70;58.60;;;;;;5034435;28;20573;-58
2022/10/08 05:10:47;;;;;;;3.60;3.30;;;19.70;58.60;;;;;;5034449;28;20199;-58
2022/10/08 05:13:14;;;;;;;3.88;3.45;;;19.70;58.70;;;;;;5034359;28;20195;-59
2022/10/08 05:15:41;;;;;;;3.58;3.28;;;19.70;58.70;;;;;;5049589;28;20220;-59
2022/10/08 05:18:08;;;;;;;4.35;3.75;;;19.70;58.70;;;;;;5049591;28;20216;-60
2022/10/08 05:20:36;;;;;;;4.80;3.92;;;19.70;58.80;;;;;;5032942;28;20287;-59
2022/10/08 05:23:03;;;;;;;4.97;3.97;;;19.70;58.70;;;;;;5050642;28;20203;-58
2022/10/08 05:25:31;;;;;;;4.03;3.50;;;19.70;58.70;;;;;;5032863;28;20725;-60
2022/10/08 05:27:59;;;;;;;4.05;3.70;;;19.70;58.70;;;;;;5034143;28;20274;-58
2022/10/08 05:30:26;;;;;;;3.13;2.92;;;19.60;58.50;;;;;;5034075;28;20720;-58
2022/10/08 05:32:53;;;;;;;3.97;3.58;;;19.60;58.60;;;;;;5034052;28;20222;-58
2022/10/08 05:35:20;;;;;;;4.93;3.92;;;19.60;58.50;;;;;;5033913;28;20191;-58
2022/10/08 05:37:47;;;;;;;3.55;3.25;;;19.70;59.20;;;;;;5032541;28;20226;-58
2022/10/08 05:40:14;;;;;;;3.92;3.63;;;19.70;59.20;;;;;;5034119;28;20195;-58
2022/10/08 05:42:42;;;;;;;4.72;3.30;;;19.60;58.50;;;;;;5033882;28;20222;-58
2022/10/08 05:45:11;;;;;;;4.35;3.97;;;19.60;58.50;;;;;;5033750;28;20214;-58
2022/10/08 05:47:38;;;;;;;5.15;3.90;;;19.60;58.50;;;;;;5033730;28;20727;-58
2022/10/08 05:50:06;;;;;;;3.45;3.25;;;19.60;58.50;;;;;;5032408;28;20723;-58
2022/10/08 05:52:33;;;;;;;3.85;3.55;;;19.60;58.50;;;;;;5032596;28;20748;-59
2022/10/08 05:55:00;;;;;;;3.90;3.60;;;19.60;58.50;;;;;;5033648;28;20203;-58
2022/10/08 05:57:28;;;;;;;3.47;3.17;;;19.60;58.50;;;;;;5032180;28;20230;-58
2022/10/08 05:59:55;;;;;;;3.72;3.35;;;19.60;58.50;;;;;;5032578;28;20203;-59
2022/10/08 06:02:24;;;;;;;3.70;3.40;;;19.60;58.50;;;;;;5031857;28;20667;-58
2022/10/08 06:04:51;;;;;;;5.32;3.30;;;19.60;58.50;;;;;;5033633;28;20187;-58
2022/10/08 06:07:18;;;;;;;3.55;3.28;;;19.60;58.50;;;;;;5032312;28;20594;-58
2022/10/08 06:09:45;;;;;;;3.75;3.38;;;19.60;58.50;;;;;;5032444;28;20256;-59
2022/10/08 06:12:12;;;;;;;3.53;3.22;;;19.60;58.50;;;;;;5033658;28;20203;-59
2022/10/08 06:14:40;;;;;;;3.53;3.20;;;19.60;58.50;;;;;;5033509;28;20199;-58
2022/10/08 06:17:07;;;;;;;3.75;3.35;;;19.70;58.60;;;;;;5048625;28;20322;-58
2022/10/08 06:19:36;;;;;;;3.38;2.97;;;19.70;58.60;;;;;;5037207;28;20743;-57
2022/10/08 06:22:04;;;;;;;3.30;3.00;;;19.70;58.50;;;;;;5038915;28;20657;-58
2022/10/08 06:24:31;;;;;;;4.35;3.00;;;19.80;58.50;;;;;;5032009;28;20258;-58
2022/10/08 06:26:58;;;;;;;3.38;3.08;;;19.80;58.30;;;;;;5033214;28;20215;-58
2022/10/08 06:29:25;;;;;;;3.55;3.25;;;19.90;58.30;;;;;;5033384;28;20184;-58
2022/10/08 06:31:52;;;;;;;3.83;3.10;;;19.80;58.10;;;;;;5049055;28;20227;-58
2022/10/08 06:34:20;;;;;;;4.45;3.38;;;19.90;58.20;;;;;;5033527;28;20215;-58
2022/10/08 06:36:48;;;;;;;3.88;3.35;;;19.90;58.10;;;;;;5048640;28;20223;-58
2022/10/08 06:39:16;;;;;;;4.10;3.70;;;19.90;58.00;;;;;;5032996;28;20684;-58
2022/10/08 06:41:44;;;;;;;3.35;3.08;;;19.90;58.00;;;;;;5031879;28;20200;-58
2022/10/08 06:44:12;;;;;;;4.68;3.45;;;19.90;57.90;;;;;;5031649;28;20206;-59
2022/10/08 06:46:39;;;;;;;4.78;3.60;;;20.00;57.90;;;;;;5032952;28;20621;-58
2022/10/08 06:49:06;;;;;;;3.85;3.15;;;20.00;57.80;;;;;;5032944;28;20188;-58
2022/10/08 06:51:33;;;;;;;3.83;3.47;;;20.00;57.80;;;;;;5031940;28;20208;-58
2022/10/08 06:54:02;;;;;;;4.63;3.25;;;20.10;57.80;;;;;;5048186;28;20204;-58
2022/10/08 06:56:29;;;;;;;3.83;3.53;;;20.00;57.70;;;;;;5032691;28;20740;-58
2022/10/08 06:58:56;;;;;;;6.60;4.00;;;20.10;57.70;;;;;;5033150;28;20211;-58
2022/10/08 07:01:24;;;;;;;4.03;3.63;;;20.10;57.70;;;;;;5031508;28;20216;-58
2022/10/08 07:03:51;;;;;;;3.80;3.50;;;20.10;57.60;;;;;;5032834;28;20246;-58
2022/10/08 07:06:18;;;;;;;4.57;3.58;;;20.10;57.60;;;;;;5033005;28;20295;-58
2022/10/08 07:08:46;;;;;;;3.65;3.30;;;20.20;57.70;;;;;;5032812;28;20184;-59
2022/10/08 07:11:15;;;;;;;4.22;3.83;;;20.20;57.60;;;;;;5048079;28;20200;-59
2022/10/08 07:13:42;;;;;;;5.25;3.95;;;20.20;57.60;;;;;;5048013;28;20270;-59
2022/10/08 07:16:10;;;;;;;4.22;3.58;;;20.20;57.50;;;;;;5050956;28;20633;-59
2022/10/08 07:18:37;;;;;;;4.85;3.53;;;20.30;57.60;;;;;;5035347;28;20227;-59
2022/10/08 07:21:05;;;;;;;4.60;3.50;;;20.30;57.50;;;;;;5036552;28;20700;-58
2022/10/08 07:23:32;;;;;;;5.57;3.65;;;20.30;57.50;;;;;;5035146;28;20242;-58
2022/10/08 07:26:00;;;;;;;3.53;3.20;;;20.30;57.50;;;;;;5051772;28;20732;-58
2022/10/08 07:28:29;;;;;;;3.20;2.97;;;20.40;57.50;;;;;;5035057;28;20279;-59
2022/10/08 07:30:57;;;;;;;3.47;3.03;;;20.40;57.40;;;;;;5051531;28;20188;-66
2022/10/08 07:33:24;;;;;;;4.20;3.40;;;20.50;57.20;;;;;;5035641;28;20200;-59
2022/10/08 07:35:51;;;;;;;3.20;3.00;;;20.60;57.20;;;;;;5036258;28;20294;-59
2022/10/08 07:38:18;;;;;;;3.80;2.75;;;20.60;56.90;;;;;;5051698;28;20278;-58
2022/10/08 07:40:47;;;;;;;4.38;3.00;;;20.70;56.70;;;;;;5034912;28;20619;-59
2022/10/08 07:43:14;;;;;;;3.08;2.78;;;20.80;56.50;;;;;;5036087;28;20568;-58
2022/10/08 07:45:46;;;;;;;3.00;2.72;;;20.90;56.40;;;;;;5036391;28;20215;-59
2022/10/08 07:48:13;;;;;;;3.60;2.70;;;20.90;56.30;;;;;;5036069;28;20324;-58
2022/10/08 07:50:40;;;;;;;3.30;3.00;;;21.00;56.20;;;;;;5034876;28;20195;-59
2022/10/08 07:53:07;;;;;;;5.93;2.60;;;21.10;56.20;;;;;;5036161;28;20188;-59
2022/10/08 07:55:34;;;;;;;3.95;2.92;;;21.10;56.30;;;;;;5035783;28;20588;-58
2022/10/08 07:58:01;;;;;;;3.70;2.88;;;21.20;56.20;;;;;;5035824;28;20249;-59
2022/10/08 08:00:28;;;;;;;3.10;2.90;;;21.30;56.10;;;;;;5035838;28;20271;-59
2022/10/08 08:02:56;;;;;;;3.13;2.80;;;21.40;56.20;;;;;;5035826;28;20198;-58
2022/10/08 08:05:23;;;;;;;3.20;2.90;;;21.50;56.00;;;;;;5035679;28;20267;-58
2022/10/08 08:07:50;;;;;;;2.85;2.60;;;21.60;55.80;;;;;;5036112;28;20191;-59
2022/10/08 08:10:17;;;;;;;4.55;3.08;;;21.80;55.90;;;;;;5051327;28;20196;-59
2022/10/08 08:12:44;;;;;;;47.63;15.95;;;21.90;55.60;;;;;;5035160;28;20428;-59
2022/10/08 08:15:11;;;;;;;90.10;30.58;;;22.10;55.80;;;;;;5034152;28;20196;-59
2022/10/08 08:17:39;;;;;;;109.72;33.95;;;22.20;55.90;;;;;;5035460;28;20212;-59
2022/10/08 08:20:10;;;;;;;107.82;34.58;;;22.30;56.10;;;;;;5035607;28;20226;-59
2022/10/08 08:22:37;;;;;;;99.60;34.13;;;22.40;56.20;;;;;;5035941;28;20184;-59
2022/10/08 08:25:04;;;;;;;70.15;26.15;;;22.40;56.00;;;;;;5035410;28;20658;-59
2022/10/08 08:27:31;;;;;;;79.75;29.75;;;22.50;55.90;;;;;;5033811;28;20216;-59
2022/10/08 08:29:58;;;;;;;80.90;27.92;;;22.40;55.80;;;;;;5035382;28;20188;-61
2022/10/08 08:32:25;;;;;;;80.88;26.55;;;22.40;55.80;;;;;;5035282;28;20189;-60
2022/10/08 08:34:52;;;;;;;50.35;21.73;;;22.30;55.70;;;;;;5035583;28;20187;-60
2022/10/08 08:37:20;;;;;;;71.07;26.15;;;22.30;55.70;;;;;;5035619;28;20326;-61
2022/10/08 08:39:47;;;;;;;61.17;23.23;;;22.30;55.70;;;;;;5035927;28;20275;-60
2022/10/08 08:42:23;;;;;;;69.50;23.50;;;22.20;55.80;;;;;;5034009;28;20286;-60
2022/10/08 08:44:56;;;;;;;56.00;22.65;;;22.20;55.60;;;;;;5035372;28;20214;-59
2022/10/08 08:47:24;;;;;;;56.30;22.30;;;22.20;55.20;;;;;;5034998;28;20208;-59
2022/10/08 08:49:52;;;;;;;55.97;21.58;;;22.20;55.10;;;;;;5034880;28;20749;-61
2022/10/08 08:52:23;;;;;;;52.28;20.73;;;22.20;55.20;;;;;;5033628;28;20196;-60
2022/10/08 08:54:52;;;;;;;44.13;19.20;;;22.30;55.20;;;;;;5035147;28;20180;-60
2022/10/08 08:57:31;;;;;;;49.03;19.23;;;22.30;55.30;;;;;;5033386;28;20220;-59
2022/10/08 09:00:01;;;;;;;53.67;20.02;;;22.30;55.00;;;;;;5033451;28;20634;-60
2022/10/08 09:02:29;;;;;;;45.45;18.90;;;22.30;55.00;;;;;;5034550;28;20224;-60
2022/10/08 09:04:57;;;;;;;46.53;19.33;;;22.40;54.80;;;;;;5033285;28;20454;-60
2022/10/08 09:07:26;;;;;;;44.40;18.35;;;22.50;54.80;;;;;;5033240;28;20710;-60
2022/10/08 09:09:57;;;;;;;47.63;18.55;;;22.50;54.50;;;;;;5033605;28;20208;-61
2022/10/08 09:12:27;;;;;;;50.75;19.45;;;22.70;54.20;;;;;;5033265;28;20196;-60
2022/10/08 09:14:54;;;;;;;41.10;17.77;;;22.80;54.60;;;;;;5032008;28;20448;-61
2022/10/08 09:17:23;;;;;;;41.70;16.73;;;22.90;54.00;;;;;;5032921;28;20226;-60
2022/10/08 09:19:50;;;;;;;38.03;16.77;;;23.00;53.60;;;;;;5034424;28;20211;-59
2022/10/08 09:22:20;;;;;;;37.45;15.95;;;23.10;54.00;;;;;;5034582;28;20224;-63
2022/10/08 09:24:50;;;;;;;32.70;15.70;;;23.10;53.70;;;;;;5032923;28;20752;-65
2022/10/08 09:27:18;;;;;;;39.25;15.93;;;23.10;53.40;;;;;;5034177;28;20709;-60
2022/10/08 09:29:45;;;;;;;34.92;15.60;;;23.20;53.20;;;;;;5032904;28;20275;-57
2022/10/08 09:32:16;;;;;;;34.63;15.65;;;23.30;53.20;;;;;;5032724;28;20224;-57
2022/10/08 09:34:43;;;;;;;38.13;15.40;;;23.30;53.00;;;;;;5033973;28;20192;-58
2022/10/08 09:37:17;;;;;;;29.58;13.15;;;23.30;53.20;;;;;;5033225;28;20212;-57
2022/10/08 09:40:16;;;;;;;29.95;13.43;;;23.30;52.80;;;;;;5049330;28;20214;-57
2022/10/08 09:42:43;;;;;;;24.20;10.60;;;23.30;52.60;;;;;;5033921;28;20195;-56
2022/10/08 09:45:31;;;;;;;28.05;10.68;;;23.30;49.70;;;;;;5032466;28;20250;-57
2022/10/08 09:48:20;;;;;;;22.20;10.40;;;23.20;50.60;;;;;;5033983;28;20196;-57
2022/10/08 09:50:55;;;;;;;23.42;11.57;;;23.20;50.90;;;;;;5032503;28;20627;-56
2022/10/08 09:53:23;;;;;;;22.27;9.88;;;23.10;51.60;;;;;;5032425;28;20230;-57
2022/10/08 09:55:54;;;;;;;22.33;9.35;;;23.10;51.60;;;;;;5032290;28;20657;-56
2022/10/08 09:58:21;;;;;;;24.10;9.57;;;23.10;51.80;;;;;;5033578;28;20212;-57
2022/10/08 10:00:56;;;;;;;24.67;9.82;;;23.10;51.70;;;;;;5032318;28;20571;-58
2022/10/08 10:03:23;;;;;;;22.40;9.70;;;23.10;51.80;;;;;;5048991;28;20199;-56
2022/10/08 10:05:50;;;;;;;24.73;9.25;;;23.10;52.00;;;;;;5033499;28;20222;-57
2022/10/08 10:08:53;;;;;;;18.63;8.60;;;23.00;52.40;;;;;;5032330;28;20223;-57
2022/10/08 10:11:26;;;;;;;22.88;8.73;;;23.00;52.60;;;;;;5033659;28;20196;-58
2022/10/08 10:13:53;;;;;;;24.95;7.88;;;22.90;52.50;;;;;;5048864;28;20635;-58
2022/10/08 10:16:23;;;;;;;14.52;7.78;;;22.90;51.90;;;;;;5048595;28;20208;-57
2022/10/08 10:18:54;;;;;;;18.73;8.10;;;22.90;52.40;;;;;;5033736;28;20208;-57
2022/10/08 10:21:26;;;;;;;15.68;7.80;;;22.90;52.50;;;;;;5033449;28;20180;-57
2022/10/08 10:23:59;;;;;;;17.83;8.40;;;23.00;52.40;;;;;;5033465;28;20176;-57
2022/10/08 10:26:29;;;;;;;17.35;8.23;;;23.00;52.40;;;;;;5048536;28;20227;-57
2022/10/08 10:28:57;;;;;;;21.15;8.38;;;23.00;52.30;;;;;;5048560;28;20207;-59
2022/10/08 10:31:25;;;;;;;16.23;7.60;;;23.00;52.20;;;;;;5033403;28;20600;-58
2022/10/08 10:33:54;;;;;;;17.42;7.20;;;23.10;52.20;;;;;;5031881;28;20254;-58
2022/10/08 10:36:21;;;;;;;15.38;8.07;;;23.10;52.00;;;;;;5033016;28;20216;-58
2022/10/08 10:38:52;;;;;;;18.95;7.60;;;23.10;51.90;;;;;;5048401;28;20216;-58
2022/10/08 10:41:22;;;;;;;15.65;7.85;;;23.20;51.80;;;;;;5033371;28;20176;-57
2022/10/08 10:43:51;;;;;;;16.83;7.43;;;23.20;51.70;;;;;;5033307;28;20187;-58
2022/10/08 10:46:26;;;;;;;16.13;7.43;;;23.20;51.60;;;;;;5092996;22;20317;-65
2022/10/08 10:48:53;;;;;;;16.63;7.47;;;23.20;51.50;;;;;;5033047;28;20199;-65
2022/10/08 10:51:28;;;;;;;18.15;6.88;;;23.30;51.50;;;;;;5037504;28;20669;-65
2022/10/08 10:54:01;;;;;;;16.83;7.10;;;23.30;51.50;;;;;;5036352;28;20195;-65
2022/10/08 10:56:30;;;;;;;17.65;7.10;;;23.40;51.50;;;;;;5035847;28;20211;-64
2022/10/08 10:59:13;;;;;;;15.93;6.45;;;23.30;52.10;;;;;;5037245;28;20219;-64
2022/10/08 11:01:43;;;;;;;14.48;6.57;;;23.20;51.60;;;;;;5037570;28;20649;-65
2022/10/08 11:04:13;;;;;;;13.60;6.60;;;23.20;51.60;;;;;;5037701;28;20544;-64
2022/10/08 11:06:47;;;;;;;16.58;6.65;;;23.20;51.70;;;;;;5037301;28;20192;-65
2022/10/08 11:09:17;;;;;;;13.85;6.35;;;23.20;51.70;;;;;;5036408;28;20184;-65
2022/10/08 11:11:45;;;;;;;12.90;5.65;;;23.30;51.30;;;;;;5038546;28;20246;-64
2022/10/08 11:14:28;;;;;;;13.60;6.03;;;23.20;51.40;;;;;;5036574;28;20219;-65
2022/10/08 11:16:59;;;;;;;10.75;5.13;;;23.20;51.50;;;;;;5035942;28;20243;-64
2022/10/08 11:19:35;;;;;;;14.35;6.25;;;23.20;50.50;;;;;;5037047;28;20222;-65
2022/10/08 11:22:05;;;;;;;13.25;5.43;;;23.20;51.40;;;;;;5035711;28;20279;-65
2022/10/08 11:24:45;;;;;;;12.82;5.68;;;23.20;51.80;;;;;;5035468;28;20187;-65
2022/10/08 11:27:15;;;;;;;11.13;5.70;;;23.30;52.00;;;;;;5035344;28;20220;-61
2022/10/08 11:29:45;;;;;;;12.45;5.70;;;23.30;51.90;;;;;;5036884;28;20172;-65
2022/10/08 11:32:13;;;;;;;10.90;5.60;;;23.30;51.90;;;;;;5036546;28;20672;-65
2022/10/08 11:34:43;;;;;;;11.73;5.85;;;23.30;51.90;;;;;;5035236;28;20207;-65
2022/10/08 11:37:11;;;;;;;11.93;5.30;;;23.20;51.80;;;;;;5035281;28;20591;-65
2022/10/08 11:39:46;;;;;;;11.65;5.38;;;23.20;51.50;;;;;;5035291;28;20222;-65
2022/10/08 11:42:17;;;;;;;11.82;5.18;;;23.20;51.80;;;;;;5036375;28;20225;-65
2022/10/08 11:44:45;;;;;;;11.32;5.55;;;23.20;51.70;;;;;;5035654;28;20245;-66
2022/10/08 11:47:35;;;;;;;11.15;5.20;;;23.20;51.70;;;;;;5034907;28;20220;-65
2022/10/08 11:50:03;;;;;;;8.90;4.97;;;23.20;51.70;;;;;;5035168;28;20200;-65
2022/10/08 11:52:31;;;;;;;11.57;5.22;;;23.20;51.70;;;;;;5039633;22;20228;-56
2022/10/08 11:54:59;;;;;;;10.27;4.95;;;23.20;51.60;;;;;;5016374;28;20189;-57
2022/10/08 11:57:32;;;;;;;10.52;4.90;;;23.30;51.70;;;;;;5014947;28;20252;-56
2022/10/08 12:00:01;;;;;;;9.13;4.25;;;23.30;51.70;;;;;;5014610;28;20212;-57
2022/10/08 12:02:32;;;;;;;9.52;4.70;;;23.20;51.60;;;;;;5015985;28;20192;-56
2022/10/08 12:05:00;;;;;;;7.93;4.50;;;23.20;51.60;;;;;;5016456;28;20216;-56
2022/10/08 12:07:30;;;;;;;9.30;4.90;;;23.30;51.70;;;;;;5016014;28;20216;-56
2022/10/08 12:10:24;;;;;;;10.27;4.53;;;23.20;51.30;;;;;;5015900;28;20287;-56
2022/10/08 12:13:28;;;;;;;7.50;4.35;;;23.20;50.70;;;;;;5016075;28;20177;-56
2022/10/08 12:16:07;;;;;;;7.80;4.03;;;23.20;51.10;;;;;;5015933;28;20212;-57
2022/10/08 12:18:52;;;;;;;9.18;4.00;;;23.20;51.20;;;;;;5014560;28;20208;-56
2022/10/08 12:21:52;;;;;;;8.65;4.43;;;23.20;51.20;;;;;;5016226;28;20264;-56
2022/10/08 12:24:58;;;;;;;8.27;4.32;;;23.20;51.20;;;;;;5014494;28;20288;-56
2022/10/08 12:27:38;;;;;;;8.93;4.25;;;23.20;51.30;;;;;;5014447;28;20326;-56
2022/10/08 12:30:07;;;;;;;7.70;4.30;;;23.20;51.30;;;;;;5015290;28;20204;-56
2022/10/08 12:32:53;;;;;;;7.20;4.10;;;23.20;51.30;;;;;;5016099;28;20538;-56
2022/10/08 12:35:22;;;;;;;7.13;4.05;;;23.20;51.40;;;;;;5015867;28;20239;-56
2022/10/08 12:37:56;;;;;;;9.27;4.32;;;23.20;51.50;;;;;;5015562;28;20209;-56
2022/10/08 12:40:30;;;;;;;7.90;4.10;;;23.20;51.50;;;;;;5014243;28;20657;-57
2022/10/08 12:43:05;;;;;;;9.60;4.22;;;23.20;51.60;;;;;;5015500;28;20176;-56
2022/10/08 12:45:34;;;;;;;6.20;3.80;;;23.20;51.60;;;;;;5015688;28;20172;-57
2022/10/08 12:48:05;;;;;;;6.25;4.22;;;23.10;51.60;;;;;;5014110;28;20221;-56
2022/10/08 12:50:41;;;;;;;8.35;3.83;;;23.10;51.60;;;;;;5014855;28;20197;-57
2022/10/08 12:53:12;;;;;;;7.63;4.00;;;23.10;51.70;;;;;;5015426;28;20205;-57
2022/10/08 12:55:45;;;;;;;7.55;4.13;;;23.10;51.80;;;;;;5013962;28;20286;-57
2022/10/08 12:58:15;;;;;;;6.90;3.75;;;23.10;51.80;;;;;;5013929;28;20181;-57